createdAt,value
2023-04-12T00:00:57.598Z,8.27
2023-04-12T00:03:25.438Z,8.09
2023-04-12T00:05:55.587Z,7.93
2023-04-12T00:08:33.038Z,7.99
2023-04-12T00:11:00.780Z,7.85
2023-04-12T00:13:27.541Z,7.87
2023-04-12T00:15:54.020Z,7.83
2023-04-12T00:18:21.690Z,7.76
2023-04-12T00:20:48.073Z,7.74
2023-04-12T00:23:15.343Z,7.65
2023-04-12T00:25:41.789Z,7.71
2023-04-12T00:28:08.223Z,7.57
2023-04-12T00:30:34.694Z,7.19
2023-04-12T00:33:01.246Z,7.37
2023-04-12T00:35:27.732Z,7.43
2023-04-12T00:37:54.849Z,7.38
2023-04-12T00:40:21.331Z,7.23
2023-04-12T00:42:47.903Z,7.29
2023-04-12T00:45:14.376Z,7.39
2023-04-12T00:47:42.896Z,7.36
2023-04-12T00:50:10.750Z,7.40
2023-04-12T00:52:39.196Z,7.24
2023-04-12T00:55:09.861Z,7.41
2023-04-12T00:57:38.867Z,7.39
2023-04-12T01:00:12.884Z,7.35
2023-04-12T01:02:47.818Z,7.33
2023-04-12T01:05:22.097Z,7.30
2023-04-12T01:08:06.189Z,7.37
2023-04-12T01:10:41.907Z,7.33
2023-04-12T01:13:28.881Z,7.25
2023-04-12T01:16:20.753Z,7.29
2023-04-12T01:18:51.224Z,7.26
2023-04-12T01:21:45.832Z,7.34
2023-04-12T01:24:29.550Z,7.26
2023-04-12T01:27:00.747Z,7.11
2023-04-12T01:29:30.131Z,7.15
2023-04-12T01:32:04.812Z,7.18
2023-04-12T01:34:33.466Z,7.09
2023-04-12T01:37:02.392Z,6.88
2023-04-12T01:39:33.660Z,7.09
2023-04-12T01:42:01.474Z,7.07
2023-04-12T01:44:28.291Z,7.04
2023-04-12T01:46:55.261Z,7.10
2023-04-12T01:49:32.684Z,7.09
2023-04-12T01:52:09.592Z,7.14
2023-04-12T01:54:39.270Z,7.15
2023-04-12T01:57:08.453Z,7.12
2023-04-12T01:59:40.066Z,7.10
2023-04-12T02:02:08.313Z,7.02
2023-04-12T02:04:36.262Z,6.86
2023-04-12T02:07:03.570Z,6.88
2023-04-12T02:09:30.624Z,6.91
2023-04-12T02:11:57.165Z,6.90
2023-04-12T02:14:23.584Z,6.90
2023-04-12T02:16:50.836Z,6.88
2023-04-12T02:19:17.344Z,6.99
2023-04-12T02:21:45.531Z,6.92
2023-04-12T02:24:12.852Z,6.99
2023-04-12T02:26:39.934Z,6.99
2023-04-12T02:29:10.175Z,6.93
2023-04-12T02:31:38.873Z,6.91
2023-04-12T02:34:08.794Z,6.92
2023-04-12T02:36:37.788Z,6.96
2023-04-12T02:39:05.110Z,7.01
2023-04-12T02:41:34.170Z,6.90
2023-04-12T02:44:00.616Z,6.89
2023-04-12T02:46:27.644Z,6.94
2023-04-12T02:48:57.745Z,6.93
2023-04-12T02:51:32.379Z,6.91
2023-04-12T02:53:59.990Z,6.92
2023-04-12T02:56:31.418Z,6.84
2023-04-12T02:59:06.877Z,6.88
2023-04-12T03:01:56.173Z,6.94
2023-04-12T03:04:30.514Z,6.90
2023-04-12T03:06:59.554Z,6.76
2023-04-12T03:09:34.938Z,6.74
2023-04-12T03:12:02.701Z,6.55
2023-04-12T03:14:33.460Z,6.62
2023-04-12T03:17:00.086Z,6.65
2023-04-12T03:19:28.883Z,6.56
2023-04-12T03:21:55.377Z,6.47
2023-04-12T03:24:22.299Z,6.33
2023-04-12T03:26:50.193Z,6.35
2023-04-12T03:29:22.170Z,6.34
2023-04-12T03:31:50.473Z,6.39
2023-04-12T03:34:17.779Z,6.40
2023-04-12T03:36:48.970Z,6.24
2023-04-12T03:39:24.364Z,6.09
2023-04-12T03:41:53.188Z,6.21
2023-04-12T03:44:22.716Z,6.31
2023-04-12T03:46:49.484Z,6.18
2023-04-12T03:49:17.331Z,6.14
2023-04-12T03:51:46.105Z,6.23
2023-04-12T03:54:13.172Z,6.17
2023-04-12T03:56:56.582Z,6.12
2023-04-12T03:59:32.663Z,6.23
2023-04-12T04:02:01.257Z,6.28
2023-04-12T04:04:30.032Z,6.27
2023-04-12T04:07:01.163Z,6.15
2023-04-12T04:09:30.366Z,6.21
2023-04-12T04:11:56.836Z,6.21
2023-04-12T04:14:24.495Z,6.28
2023-04-12T04:16:51.371Z,6.01
2023-04-12T04:19:19.780Z,6.06
2023-04-12T04:21:47.483Z,6.04
2023-04-12T04:24:14.227Z,5.94
2023-04-12T04:26:45.940Z,5.91
2023-04-12T04:29:21.968Z,5.91
2023-04-12T04:31:48.713Z,5.95
2023-04-12T04:34:16.334Z,6.12
2023-04-12T04:36:46.805Z,5.96
2023-04-12T04:39:20.875Z,6.14
2023-04-12T04:41:54.353Z,6.25
2023-04-12T04:44:29.286Z,6.18
2023-04-12T04:46:59.082Z,6.27
2023-04-12T04:49:25.562Z,6.20
2023-04-12T04:51:53.139Z,5.93
2023-04-12T04:54:22.342Z,5.96
2023-04-12T04:56:48.761Z,6.04
2023-04-12T04:59:17.859Z,5.94
2023-04-12T05:01:44.458Z,5.90
2023-04-12T05:04:11.121Z,6.09
2023-04-12T05:06:37.596Z,6.02
2023-04-12T05:09:06.215Z,5.88
2023-04-12T05:11:38.042Z,5.89
2023-04-12T05:14:12.031Z,5.74
2023-04-12T05:16:39.200Z,5.75
2023-04-12T05:19:06.983Z,5.92
2023-04-12T05:21:34.317Z,5.87
2023-04-12T05:24:01.364Z,6.03
2023-04-12T05:26:28.858Z,6.11
2023-04-12T05:28:57.327Z,5.97
2023-04-12T05:31:24.718Z,5.82
2023-04-12T05:33:53.776Z,5.67
2023-04-12T05:36:40.166Z,5.80
2023-04-12T05:39:07.457Z,5.95
2023-04-12T05:41:35.682Z,5.90
2023-04-12T05:44:03.626Z,6.04
2023-04-12T05:46:30.186Z,5.90
2023-04-12T05:48:57.820Z,5.85
2023-04-12T05:51:37.740Z,5.82
2023-04-12T05:54:07.909Z,5.80
2023-04-12T05:56:35.893Z,5.46
2023-04-12T05:59:04.621Z,5.82
2023-04-12T06:01:33.060Z,5.93
2023-04-12T06:04:04.123Z,6.01
2023-04-12T06:06:31.440Z,6.28
2023-04-12T06:09:00.632Z,6.44
2023-04-12T06:11:28.662Z,6.51
2023-04-12T06:13:55.629Z,6.54
2023-04-12T06:16:22.935Z,6.39
2023-04-12T06:18:49.536Z,6.57
2023-04-12T06:21:16.087Z,6.50
2023-04-12T06:23:42.619Z,6.48
2023-04-12T06:26:09.244Z,6.52
2023-04-12T06:28:37.188Z,6.43
2023-04-12T06:31:04.143Z,6.35
2023-04-12T06:33:36.774Z,6.42
2023-04-12T06:36:07.146Z,6.48
2023-04-12T06:38:33.883Z,6.58
2023-04-12T06:41:00.601Z,6.63
2023-04-12T06:43:27.112Z,6.60
2023-04-12T06:45:53.595Z,6.57
2023-04-12T06:48:20.171Z,6.58
2023-04-12T06:50:46.626Z,6.70
2023-04-12T06:53:16.149Z,6.65
2023-04-12T06:55:42.537Z,6.81
2023-04-12T06:58:09.189Z,6.89
2023-04-12T07:00:35.856Z,7.01
2023-04-12T07:03:02.695Z,6.99
2023-04-12T07:05:29.250Z,7.08
2023-04-12T07:07:56.012Z,7.18
2023-04-12T07:10:22.507Z,7.13
2023-04-12T07:12:49.648Z,6.94
2023-04-12T07:15:16.117Z,6.77
2023-04-12T07:17:42.743Z,6.79
2023-04-12T07:20:09.818Z,6.97
2023-04-12T07:22:36.418Z,7.04
2023-04-12T07:25:05.066Z,7.08
2023-04-12T07:27:31.750Z,6.94
2023-04-12T07:29:58.732Z,6.98
2023-04-12T07:32:25.964Z,6.89
2023-04-12T07:34:53.039Z,7.00
2023-04-12T07:37:20.451Z,6.99
2023-04-12T07:39:46.980Z,7.14
2023-04-12T07:42:13.484Z,7.17
2023-04-12T07:44:39.900Z,7.03
2023-04-12T07:47:07.162Z,7.20
2023-04-12T07:49:33.584Z,7.24
2023-04-12T07:52:00.054Z,7.23
2023-04-12T07:54:27.862Z,7.34
2023-04-12T07:56:59.325Z,7.34
2023-04-12T07:59:25.812Z,7.24
2023-04-12T08:01:52.551Z,7.41
2023-04-12T08:04:19.110Z,7.47
2023-04-12T08:06:45.824Z,7.39
2023-04-12T08:09:12.491Z,7.37
2023-04-12T08:11:38.937Z,7.43
2023-04-12T08:14:05.557Z,7.58
2023-04-12T08:16:32.589Z,7.64
2023-04-12T08:18:59.045Z,7.68
2023-04-12T08:21:26.007Z,7.81
2023-04-12T08:23:52.382Z,7.83
2023-04-12T08:26:18.892Z,7.68
2023-04-12T08:28:45.375Z,7.72
2023-04-12T08:31:13.191Z,7.83
2023-04-12T08:33:39.615Z,7.93
2023-04-12T08:36:06.778Z,7.93
2023-04-12T08:41:07.438Z,7.97
2023-04-12T08:43:34.902Z,7.89
2023-04-12T08:46:01.703Z,8.02
2023-04-12T08:48:28.559Z,8.04
2023-04-12T08:50:57.701Z,7.92
2023-04-12T08:53:24.221Z,7.91
2023-04-12T08:55:50.820Z,8.13
2023-04-12T08:58:17.239Z,8.20
2023-04-12T09:00:45.073Z,8.13
2023-04-12T09:03:11.734Z,8.27
2023-04-12T09:05:38.550Z,8.45
2023-04-12T09:08:05.273Z,8.38
2023-04-12T09:10:37.183Z,8.50
2023-04-12T09:13:07.248Z,8.44
2023-04-12T09:15:34.993Z,8.46
2023-04-12T09:18:07.348Z,8.34
2023-04-12T09:20:34.507Z,8.43
2023-04-12T09:23:02.738Z,8.47
2023-04-12T09:25:40.565Z,8.45
2023-04-12T09:28:26.629Z,8.55
2023-04-12T09:30:58.047Z,8.55
2023-04-12T09:33:34.629Z,8.54
2023-04-12T09:36:02.921Z,8.65
2023-04-12T09:38:33.429Z,8.47
2023-04-12T09:41:22.328Z,8.61
2023-04-12T09:43:50.044Z,8.72
2023-04-12T09:46:16.702Z,8.79
2023-04-12T09:48:51.531Z,8.76
2023-04-12T09:51:34.130Z,8.76
2023-04-12T09:54:05.570Z,8.78
2023-04-12T09:56:35.689Z,8.83
2023-04-12T09:59:04.303Z,8.94
2023-04-12T10:01:36.756Z,8.83
2023-04-12T10:04:05.122Z,9.03
2023-04-12T10:06:33.253Z,9.02
2023-04-12T10:09:04.177Z,9.06
2023-04-12T10:11:32.076Z,9.15
2023-04-12T10:13:59.012Z,9.22
2023-04-12T10:16:27.149Z,9.12
2023-04-12T10:18:55.371Z,9.33
2023-04-12T10:21:22.358Z,9.32
2023-04-12T10:23:48.900Z,9.52
2023-04-12T10:26:16.724Z,9.54
2023-04-12T10:28:46.969Z,9.47
2023-04-12T10:31:32.847Z,9.53
2023-04-12T10:34:02.672Z,9.50
2023-04-12T10:36:54.718Z,9.53
2023-04-12T10:39:38.960Z,9.50
2023-04-12T10:42:18.561Z,9.54
2023-04-12T10:44:45.574Z,9.53
2023-04-12T10:47:12.257Z,9.53
2023-04-12T10:49:39.490Z,9.46
2023-04-12T10:52:08.989Z,9.30
2023-04-12T10:54:36.698Z,9.51
2023-04-12T10:57:05.125Z,9.77
2023-04-12T11:00:05.400Z,9.72
2023-04-12T11:02:34.453Z,9.79
2023-04-12T11:05:08.639Z,9.82
2023-04-12T11:07:54.475Z,9.99
2023-04-12T11:10:40.141Z,10.06
2023-04-12T11:13:09.495Z,10.02
2023-04-12T11:15:39.627Z,10.10
2023-04-12T11:18:11.703Z,10.00
2023-04-12T11:20:40.483Z,10.28
2023-04-12T11:23:10.581Z,10.44
2023-04-12T11:25:37.827Z,10.69
2023-04-12T11:28:11.078Z,10.93
2023-04-12T11:30:54.296Z,10.99
2023-04-12T11:33:32.080Z,11.01
2023-04-12T11:35:58.667Z,10.89
2023-04-12T11:38:25.163Z,10.70
2023-04-12T11:40:51.641Z,10.80
2023-04-12T11:43:21.452Z,10.79
2023-04-12T11:45:48.171Z,10.72
2023-04-12T11:48:15.862Z,10.70
2023-04-12T11:50:42.282Z,10.93
2023-04-12T11:53:17.822Z,11.06
2023-04-12T11:55:51.676Z,11.10
2023-04-12T11:58:23.016Z,11.12
2023-04-12T12:00:50.499Z,11.21
2023-04-12T12:03:19.042Z,11.12
2023-04-12T12:05:46.641Z,11.23
2023-04-12T12:08:13.635Z,11.17
2023-04-12T12:10:55.585Z,11.15
2023-04-12T12:13:27.270Z,11.11
2023-04-12T12:15:53.788Z,11.16
2023-04-12T12:18:26.345Z,11.17
2023-04-12T12:20:52.794Z,11.05
2023-04-12T12:23:32.284Z,10.78
2023-04-12T12:26:10.508Z,10.75
2023-04-12T12:28:44.764Z,10.70
2023-04-12T12:31:12.356Z,10.76
2023-04-12T12:33:46.470Z,10.79
2023-04-12T12:36:16.403Z,10.99
2023-04-12T12:38:43.091Z,11.06
2023-04-12T12:41:20.843Z,11.17
2023-04-12T12:43:52.386Z,11.32
2023-04-12T12:46:20.099Z,11.27
2023-04-12T12:48:48.093Z,11.23
2023-04-12T12:51:20.035Z,11.25
2023-04-12T12:53:47.153Z,11.00
2023-04-12T12:56:14.746Z,10.92
2023-04-12T12:58:42.084Z,10.65
2023-04-12T13:01:08.850Z,10.50
2023-04-12T13:03:35.633Z,10.46
2023-04-12T13:06:02.215Z,10.43
2023-04-12T13:08:34.286Z,10.44
2023-04-12T13:11:00.954Z,10.56
2023-04-12T13:13:27.464Z,10.64
2023-04-12T13:15:53.975Z,10.63
2023-04-12T13:18:20.424Z,10.77
2023-04-12T13:20:46.928Z,10.80
2023-04-12T13:23:14.654Z,10.77
2023-04-12T13:25:41.074Z,10.82
2023-04-12T13:28:07.501Z,10.88
2023-04-12T13:30:34.092Z,10.81
2023-04-12T13:33:00.601Z,10.75
2023-04-12T13:35:27.338Z,10.80
2023-04-12T13:37:53.742Z,10.72
2023-04-12T13:40:20.351Z,10.71
2023-04-12T13:42:46.805Z,10.73
2023-04-12T13:45:13.388Z,10.53
2023-04-12T13:47:39.933Z,10.60
2023-04-12T13:50:07.084Z,10.58
2023-04-12T13:52:33.543Z,10.53
2023-04-12T13:55:00.109Z,10.53
2023-04-12T13:57:26.525Z,10.53
2023-04-12T13:59:53.058Z,10.58
2023-04-12T14:02:19.596Z,10.63
2023-04-12T14:04:54.107Z,10.58
2023-04-12T14:07:21.188Z,10.58
2023-04-12T14:09:48.601Z,10.68
2023-04-12T14:12:15.423Z,10.68
2023-04-12T14:14:42.203Z,10.67
2023-04-12T14:17:08.640Z,10.69
2023-04-12T14:19:35.364Z,10.74
2023-04-12T14:22:02.405Z,10.83
2023-04-12T14:24:29.119Z,10.94
2023-04-12T14:26:57.097Z,10.70
2023-04-12T14:29:23.611Z,10.71
2023-04-12T14:31:50.002Z,10.79
2023-04-12T14:34:16.463Z,10.80
2023-04-12T14:36:42.946Z,10.83
2023-04-12T14:39:11.283Z,10.92
2023-04-12T14:41:40.128Z,10.80
2023-04-12T14:44:06.700Z,10.91
2023-04-12T14:46:33.122Z,10.87
2023-04-12T14:49:01.310Z,10.81
2023-04-12T14:51:29.179Z,10.80
2023-04-12T14:53:56.071Z,10.70
2023-04-12T14:56:28.359Z,10.54
2023-04-12T14:58:56.712Z,10.53
2023-04-12T15:01:23.995Z,10.62
2023-04-12T15:03:54.169Z,10.73
2023-04-12T15:06:22.968Z,10.68
2023-04-12T15:08:55.033Z,10.91
2023-04-12T15:11:29.882Z,11.02
2023-04-12T15:13:57.033Z,11.04
2023-04-12T15:16:23.632Z,10.99
2023-04-12T15:18:51.214Z,11.07
2023-04-12T15:21:18.002Z,11.01
2023-04-12T15:23:44.887Z,11.12
2023-04-12T15:26:12.034Z,11.24
2023-04-12T15:28:38.668Z,11.21
2023-04-12T15:31:05.956Z,11.28
2023-04-12T15:33:34.779Z,11.30
2023-04-12T15:36:02.389Z,11.41
2023-04-12T15:38:29.871Z,11.51
2023-04-12T15:40:59.257Z,11.53
2023-04-12T15:43:26.426Z,11.21
2023-04-12T15:45:54.591Z,11.44
2023-04-12T15:48:23.019Z,11.54
2023-04-12T15:50:51.092Z,11.44
2023-04-12T15:53:20.796Z,11.43
2023-04-12T15:55:47.618Z,11.39
2023-04-12T15:58:14.704Z,11.32
2023-04-12T16:00:41.249Z,11.07
2023-04-12T16:03:08.216Z,11.03
2023-04-12T16:05:34.842Z,10.96
2023-04-12T16:08:01.536Z,10.98
2023-04-12T16:10:28.044Z,10.95
2023-04-12T16:12:56.551Z,10.91
2023-04-12T16:15:23.389Z,10.70
2023-04-12T16:17:54.362Z,10.84
2023-04-12T16:20:22.205Z,10.79
2023-04-12T16:22:54.311Z,10.89
2023-04-12T16:25:25.034Z,10.93
2023-04-12T16:27:51.845Z,10.82
2023-04-12T16:30:18.415Z,10.76
2023-04-12T16:32:46.756Z,10.77
2023-04-12T16:35:15.001Z,10.73
2023-04-12T16:37:42.803Z,10.70
2023-04-12T16:40:12.360Z,10.66
2023-04-12T16:42:43.417Z,10.67
2023-04-12T16:45:11.927Z,10.72
2023-04-12T16:47:39.637Z,10.70
2023-04-12T16:50:08.935Z,10.74
2023-04-12T16:52:36.751Z,10.73
2023-04-12T16:55:04.025Z,10.72
2023-04-12T16:57:30.794Z,10.38
2023-04-12T16:59:57.418Z,10.65
2023-04-12T17:02:24.806Z,10.59
2023-04-12T17:04:51.534Z,10.48
2023-04-12T17:07:18.839Z,10.29
2023-04-12T17:09:45.427Z,10.31
2023-04-12T17:12:12.429Z,10.36
2023-04-12T17:14:39.021Z,10.40
2023-04-12T17:17:06.692Z,10.37
2023-04-12T17:19:33.669Z,10.38
2023-04-12T17:22:00.285Z,10.36
2023-04-12T17:24:26.847Z,10.43
2023-04-12T17:26:53.715Z,10.45
2023-04-12T17:29:20.378Z,10.36
2023-04-12T17:31:49.749Z,10.31
2023-04-12T17:34:18.429Z,10.34
2023-04-12T17:36:45.197Z,10.31
2023-04-12T17:39:11.623Z,10.25
2023-04-12T17:41:38.239Z,10.21
2023-04-12T17:44:05.653Z,10.29
2023-04-12T17:46:33.052Z,10.29
2023-04-12T17:49:02.585Z,10.27
2023-04-12T17:51:29.192Z,10.24
2023-04-12T17:53:58.195Z,10.26
2023-04-12T17:56:25.859Z,10.07
2023-04-12T17:58:52.291Z,10.15
2023-04-12T18:01:18.754Z,10.10
2023-04-12T18:03:45.400Z,10.04
2023-04-12T18:06:13.748Z,10.02
2023-04-12T18:08:40.211Z,10.01
2023-04-12T18:11:07.802Z,9.96
2023-04-12T18:13:34.355Z,9.91
2023-04-12T18:16:01.486Z,9.95
2023-04-12T18:18:28.015Z,9.92
2023-04-12T18:20:54.460Z,9.88
2023-04-12T18:23:21.394Z,9.83
2023-04-12T18:25:48.002Z,9.76
2023-04-12T18:28:15.081Z,9.70
2023-04-12T18:30:41.490Z,9.63
2023-04-12T18:33:08.243Z,9.23
2023-04-12T18:35:34.868Z,9.42
2023-04-12T18:38:01.337Z,9.23
2023-04-12T18:40:28.546Z,8.95
2023-04-12T18:42:55.241Z,8.80
2023-04-12T18:45:22.658Z,8.67
2023-04-12T18:47:51.155Z,8.48
2023-04-12T18:50:19.242Z,8.38
2023-04-12T18:52:46.054Z,8.23
2023-04-12T18:55:12.504Z,8.20
2023-04-12T18:57:39.265Z,8.12
2023-04-12T19:00:13.434Z,8.02
2023-04-12T19:02:40.982Z,7.92
2023-04-12T19:05:10.211Z,7.85
2023-04-12T19:07:37.174Z,7.85
2023-04-12T19:10:04.323Z,7.82
2023-04-12T19:12:31.653Z,7.72
2023-04-12T19:14:58.291Z,7.63
2023-04-12T19:17:27.529Z,7.46
2023-04-12T19:19:54.762Z,7.40
2023-04-12T19:22:21.738Z,7.39
2023-04-12T19:24:49.881Z,7.37
2023-04-12T19:27:16.809Z,7.40
2023-04-12T19:29:43.985Z,7.40
2023-04-12T19:32:13.784Z,7.39
2023-04-12T19:34:41.586Z,7.33
2023-04-12T19:37:08.485Z,7.27
2023-04-12T19:39:36.083Z,7.14
2023-04-12T19:42:03.464Z,7.24
2023-04-12T19:44:30.437Z,7.24
2023-04-12T19:46:56.889Z,7.23
2023-04-12T19:49:23.838Z,6.61
2023-04-12T19:51:50.876Z,6.98
2023-04-12T19:54:18.866Z,7.06
2023-04-12T19:56:49.667Z,7.01
2023-04-12T19:59:17.740Z,6.90
2023-04-12T20:01:50.615Z,6.82
2023-04-12T20:04:21.480Z,6.71
2023-04-12T20:06:51.826Z,6.65
2023-04-12T20:09:18.606Z,6.71
2023-04-12T20:11:45.386Z,6.63
2023-04-12T20:14:11.827Z,6.62
2023-04-12T20:16:42.656Z,6.55
2023-04-12T20:19:10.046Z,6.55
2023-04-12T20:21:36.614Z,6.31
2023-04-12T20:24:05.095Z,6.37
2023-04-12T20:26:31.600Z,6.34
2023-04-12T20:28:59.846Z,6.40
2023-04-12T20:31:27.265Z,6.34
2023-04-12T20:33:55.032Z,6.33
2023-04-12T20:36:22.637Z,6.38
2023-04-12T20:38:53.073Z,6.41
2023-04-12T20:41:20.168Z,6.38
2023-04-12T20:43:47.935Z,6.36
2023-04-12T20:46:17.469Z,6.41
2023-04-12T20:48:46.274Z,6.36
2023-04-12T20:51:16.295Z,6.32
2023-04-12T20:53:49.117Z,6.23
2023-04-12T20:56:16.885Z,6.28
2023-04-12T20:58:44.278Z,6.21
2023-04-12T21:01:14.841Z,6.19
2023-04-12T21:03:42.671Z,6.21
2023-04-12T21:06:10.584Z,6.23
2023-04-12T21:08:37.970Z,6.18
2023-04-12T21:11:04.593Z,6.24
2023-04-12T21:13:31.083Z,6.29
2023-04-12T21:15:58.735Z,6.33
2023-04-12T21:18:25.316Z,6.27
2023-04-12T21:20:51.868Z,6.29
2023-04-12T21:23:18.459Z,6.28
2023-04-12T21:25:50.784Z,6.24
2023-04-12T21:28:18.064Z,6.24
2023-04-12T21:30:46.024Z,6.23
2023-04-12T21:33:12.701Z,6.21
2023-04-12T21:35:40.137Z,6.16
2023-04-12T21:38:06.569Z,6.15
2023-04-12T21:40:33.038Z,6.04
2023-04-12T21:42:59.485Z,6.06
2023-04-12T21:45:27.260Z,6.17
2023-04-12T21:47:53.818Z,6.00
2023-04-12T21:50:20.466Z,5.96
2023-04-12T21:52:47.761Z,5.97
2023-04-12T21:55:14.236Z,5.93
2023-04-12T21:57:40.780Z,5.90
2023-04-12T22:00:09.791Z,5.86
2023-04-12T22:02:39.154Z,5.92
2023-04-12T22:05:06.758Z,5.69
2023-04-12T22:07:33.601Z,5.88
2023-04-12T22:10:01.658Z,5.89
2023-04-12T22:12:28.197Z,5.97
2023-04-12T22:14:57.514Z,5.88
2023-04-12T22:17:24.079Z,5.82
2023-04-12T22:19:51.568Z,5.68
2023-04-12T22:22:18.154Z,5.74
2023-04-12T22:24:44.634Z,5.69
2023-04-12T22:27:11.152Z,5.60
2023-04-12T22:29:37.915Z,5.61
2023-04-12T22:32:04.660Z,5.35
2023-04-12T22:34:32.289Z,5.43
2023-04-12T22:36:58.866Z,5.34
2023-04-12T22:39:26.497Z,5.35
2023-04-12T22:41:53.512Z,5.30
2023-04-12T22:44:23.267Z,5.31
2023-04-12T22:46:50.812Z,5.35
2023-04-12T22:49:19.842Z,5.36
2023-04-12T22:51:46.367Z,5.19
2023-04-12T22:54:13.084Z,5.31
2023-04-12T22:56:45.249Z,5.34
2023-04-12T22:59:16.750Z,5.27
2023-04-12T23:01:47.451Z,5.32
2023-04-12T23:04:15.680Z,5.26
2023-04-12T23:06:43.456Z,5.22
2023-04-12T23:09:11.511Z,5.22
2023-04-12T23:11:39.978Z,5.26
2023-04-12T23:14:07.801Z,5.21
2023-04-12T23:16:35.272Z,5.14
2023-04-12T23:19:02.069Z,5.20
2023-04-12T23:21:30.162Z,5.05
2023-04-12T23:23:56.912Z,5.06
2023-04-12T23:26:24.628Z,5.00
2023-04-12T23:28:51.452Z,5.07
2023-04-12T23:31:18.216Z,5.12
2023-04-12T23:33:45.311Z,5.07
2023-04-12T23:36:12.633Z,5.07
2023-04-12T23:38:39.082Z,5.08
2023-04-12T23:41:07.304Z,5.02
2023-04-12T23:43:34.584Z,4.90
2023-04-12T23:46:03.046Z,5.01
2023-04-12T23:48:30.941Z,4.91
2023-04-12T23:50:57.733Z,5.09
2023-04-12T23:53:24.355Z,5.18
2023-04-12T23:55:52.033Z,5.10
2023-04-12T23:58:19.443Z,5.24
